sensor_id;sensor_type;location;lat;lon;timestamp;temperature;humidity
46752;DHT22;32497;48.936;9.270;2023-09-19T00:01:14;17.50;80.40
46752;DHT22;32497;48.936;9.270;2023-09-19T00:06:16;17.40;81.00
46752;DHT22;32497;48.936;9.270;2023-09-19T00:11:18;17.40;83.30
46752;DHT22;32497;48.936;9.270;2023-09-19T00:16:19;17.20;82.40
46752;DHT22;32497;48.936;9.270;2023-09-19T00:21:20;17.20;83.90
46752;DHT22;32497;48.936;9.270;2023-09-19T00:26:23;16.90;84.50
46752;DHT22;32497;48.936;9.270;2023-09-19T00:31:24;16.80;86.00
46752;DHT22;32497;48.936;9.270;2023-09-19T00:36:25;16.80;85.90
46752;DHT22;32497;48.936;9.270;2023-09-19T00:41:28;16.80;84.90
46752;DHT22;32497;48.936;9.270;2023-09-19T00:46:29;16.80;85.80
46752;DHT22;32497;48.936;9.270;2023-09-19T00:51:30;16.80;86.10
46752;DHT22;32497;48.936;9.270;2023-09-19T00:56:33;16.80;85.70
46752;DHT22;32497;48.936;9.270;2023-09-19T01:01:34;16.80;85.40
46752;DHT22;32497;48.936;9.270;2023-09-19T01:06:38;16.90;86.40
46752;DHT22;32497;48.936;9.270;2023-09-19T01:11:43;16.90;85.80
46752;DHT22;32497;48.936;9.270;2023-09-19T01:16:53;16.90;85.60
46752;DHT22;32497;48.936;9.270;2023-09-19T01:22:04;16.90;84.80
46752;DHT22;32497;48.936;9.270;2023-09-19T01:27:30;16.90;84.80
46752;DHT22;32497;48.936;9.270;2023-09-19T01:32:41;16.80;85.00
46752;DHT22;32497;48.936;9.270;2023-09-19T01:37:43;16.80;85.20
46752;DHT22;32497;48.936;9.270;2023-09-19T01:42:49;16.80;85.50
46752;DHT22;32497;48.936;9.270;2023-09-19T01:47:53;16.80;85.40
46752;DHT22;32497;48.936;9.270;2023-09-19T01:52:57;16.80;85.50
46752;DHT22;32497;48.936;9.270;2023-09-19T01:58:05;16.80;85.20
46752;DHT22;32497;48.936;9.270;2023-09-19T02:03:09;16.80;84.90
46752;DHT22;32497;48.936;9.270;2023-09-19T02:08:10;16.70;85.00
46752;DHT22;32497;48.936;9.270;2023-09-19T02:13:11;16.60;85.10
46752;DHT22;32497;48.936;9.270;2023-09-19T02:18:14;16.60;85.10
46752;DHT22;32497;48.936;9.270;2023-09-19T02:23:16;16.70;84.50
46752;DHT22;32497;48.936;9.270;2023-09-19T02:28:18;16.60;84.60
46752;DHT22;32497;48.936;9.270;2023-09-19T02:33:20;16.50;85.40
46752;DHT22;32497;48.936;9.270;2023-09-19T02:38:21;16.40;85.30
46752;DHT22;32497;48.936;9.270;2023-09-19T02:43:24;16.30;85.50
46752;DHT22;32497;48.936;9.270;2023-09-19T02:48:26;16.20;85.60
46752;DHT22;32497;48.936;9.270;2023-09-19T02:53:28;16.20;85.90
46752;DHT22;32497;48.936;9.270;2023-09-19T02:58:29;16.10;86.00
46752;DHT22;32497;48.936;9.270;2023-09-19T03:03:31;16.20;85.60
46752;DHT22;32497;48.936;9.270;2023-09-19T03:08:33;16.20;85.50
46752;DHT22;32497;48.936;9.270;2023-09-19T03:13:34;16.30;85.50
46752;DHT22;32497;48.936;9.270;2023-09-19T03:18:38;16.40;85.50
46752;DHT22;32497;48.936;9.270;2023-09-19T03:23:39;16.40;85.50
46752;DHT22;32497;48.936;9.270;2023-09-19T03:28:41;16.40;85.20
46752;DHT22;32497;48.936;9.270;2023-09-19T03:33:44;16.40;85.10
46752;DHT22;32497;48.936;9.270;2023-09-19T03:38:45;16.40;85.20
46752;DHT22;32497;48.936;9.270;2023-09-19T03:43:47;16.30;85.70
46752;DHT22;32497;48.936;9.270;2023-09-19T03:48:49;16.40;85.60
46752;DHT22;32497;48.936;9.270;2023-09-19T03:53:50;16.30;85.20
46752;DHT22;32497;48.936;9.270;2023-09-19T03:58:52;16.20;85.00
46752;DHT22;32497;48.936;9.270;2023-09-19T04:03:54;16.30;85.40
46752;DHT22;32497;48.936;9.270;2023-09-19T04:08:55;16.30;85.30
46752;DHT22;32497;48.936;9.270;2023-09-19T04:13:56;16.40;85.10
46752;DHT22;32497;48.936;9.270;2023-09-19T04:18:59;16.40;85.40
46752;DHT22;32497;48.936;9.270;2023-09-19T04:24:00;16.50;85.10
46752;DHT22;32497;48.936;9.270;2023-09-19T04:29:01;16.60;86.30
46752;DHT22;32497;48.936;9.270;2023-09-19T04:34:04;16.50;86.20
46752;DHT22;32497;48.936;9.270;2023-09-19T04:39:05;16.30;86.50
46752;DHT22;32497;48.936;9.270;2023-09-19T04:44:07;16.30;85.40
46752;DHT22;32497;48.936;9.270;2023-09-19T04:49:09;16.20;86.30
46752;DHT22;32497;48.936;9.270;2023-09-19T04:54:10;16.20;86.20
46752;DHT22;32497;48.936;9.270;2023-09-19T04:59:11;16.30;85.80
46752;DHT22;32497;48.936;9.270;2023-09-19T05:04:14;16.30;86.40
46752;DHT22;32497;48.936;9.270;2023-09-19T05:09:15;16.20;86.50
46752;DHT22;32497;48.936;9.270;2023-09-19T05:14:16;16.10;87.70
46752;DHT22;32497;48.936;9.270;2023-09-19T05:19:19;15.70;89.70
46752;DHT22;32497;48.936;9.270;2023-09-19T05:24:20;15.40;90.80
46752;DHT22;32497;48.936;9.270;2023-09-19T05:29:21;15.30;91.60
46752;DHT22;32497;48.936;9.270;2023-09-19T05:34:23;15.20;92.20
46752;DHT22;32497;48.936;9.270;2023-09-19T05:39:24;15.10;92.60
46752;DHT22;32497;48.936;9.270;2023-09-19T05:44:26;15.20;93.10
46752;DHT22;32497;48.936;9.270;2023-09-19T05:49:28;15.20;93.10
46752;DHT22;32497;48.936;9.270;2023-09-19T05:54:29;15.10;93.20
46752;DHT22;32497;48.936;9.270;2023-09-19T05:59:30;15.20;92.80
46752;DHT22;32497;48.936;9.270;2023-09-19T06:04:33;15.20;92.40
46752;DHT22;32497;48.936;9.270;2023-09-19T06:09:34;15.20;92.40
46752;DHT22;32497;48.936;9.270;2023-09-19T06:14:35;15.20;92.30
46752;DHT22;32497;48.936;9.270;2023-09-19T06:19:37;15.30;92.30
46752;DHT22;32497;48.936;9.270;2023-09-19T06:24:39;15.30;91.80
46752;DHT22;32497;48.936;9.270;2023-09-19T06:29:40;15.30;91.20
46752;DHT22;32497;48.936;9.270;2023-09-19T06:34:42;15.40;91.70
46752;DHT22;32497;48.936;9.270;2023-09-19T06:39:43;15.60;91.60
46752;DHT22;32497;48.936;9.270;2023-09-19T06:44:44;15.80;91.60
46752;DHT22;32497;48.936;9.270;2023-09-19T06:49:47;15.90;90.50
46752;DHT22;32497;48.936;9.270;2023-09-19T06:54:48;15.90;88.80
46752;DHT22;32497;48.936;9.270;2023-09-19T06:59:49;15.90;89.40
46752;DHT22;32497;48.936;9.270;2023-09-19T07:04:52;16.10;90.00
46752;DHT22;32497;48.936;9.270;2023-09-19T07:09:53;16.20;87.80
46752;DHT22;32497;48.936;9.270;2023-09-19T07:14:54;16.20;86.50
46752;DHT22;32497;48.936;9.270;2023-09-19T07:19:56;16.60;88.80
46752;DHT22;32497;48.936;9.270;2023-09-19T07:24:57;16.80;86.90
46752;DHT22;32497;48.936;9.270;2023-09-19T07:29:58;16.70;87.00
46752;DHT22;32497;48.936;9.270;2023-09-19T07:35:01;16.60;87.10
46752;DHT22;32497;48.936;9.270;2023-09-19T07:40:02;16.60;86.00
46752;DHT22;32497;48.936;9.270;2023-09-19T07:45:04;16.70;87.20
46752;DHT22;32497;48.936;9.270;2023-09-19T07:50:07;16.70;86.60
46752;DHT22;32497;48.936;9.270;2023-09-19T07:55:08;16.90;86.70
46752;DHT22;32497;48.936;9.270;2023-09-19T08:00:10;16.90;85.70
46752;DHT22;32497;48.936;9.270;2023-09-19T08:05:16;17.00;87.20
46752;DHT22;32497;48.936;9.270;2023-09-19T08:10:18;16.90;85.00
46752;DHT22;32497;48.936;9.270;2023-09-19T08:15:20;16.90;84.20
46752;DHT22;32497;48.936;9.270;2023-09-19T08:20:22;17.10;85.40
46752;DHT22;32497;48.936;9.270;2023-09-19T08:25:24;17.20;82.90
46752;DHT22;32497;48.936;9.270;2023-09-19T08:30:25;17.50;82.40
46752;DHT22;32497;48.936;9.270;2023-09-19T08:35:28;17.70;82.00
46752;DHT22;32497;48.936;9.270;2023-09-19T08:40:30;17.70;79.00
46752;DHT22;32497;48.936;9.270;2023-09-19T08:45:31;17.90;80.60
46752;DHT22;32497;48.936;9.270;2023-09-19T08:50:39;18.10;75.50
46752;DHT22;32497;48.936;9.270;2023-09-19T08:55:43;18.30;77.20
46752;DHT22;32497;48.936;9.270;2023-09-19T09:00:47;18.60;75.20
46752;DHT22;32497;48.936;9.270;2023-09-19T09:05:51;18.40;76.20
46752;DHT22;32497;48.936;9.270;2023-09-19T09:10:52;18.60;75.30
46752;DHT22;32497;48.936;9.270;2023-09-19T09:15:53;19.00;75.80
46752;DHT22;32497;48.936;9.270;2023-09-19T09:20:56;19.20;75.00
46752;DHT22;32497;48.936;9.270;2023-09-19T09:25:58;19.70;74.50
46752;DHT22;32497;48.936;9.270;2023-09-19T09:31:00;19.70;72.30
46752;DHT22;32497;48.936;9.270;2023-09-19T09:36:03;20.10;69.80
46752;DHT22;32497;48.936;9.270;2023-09-19T09:41:04;20.20;69.30
46752;DHT22;32497;48.936;9.270;2023-09-19T09:46:14;20.80;68.80
46752;DHT22;32497;48.936;9.270;2023-09-19T09:51:29;20.80;63.30
46752;DHT22;32497;48.936;9.270;2023-09-19T09:56:31;20.90;63.90
46752;DHT22;32497;48.936;9.270;2023-09-19T10:01:46;21.50;63.40
46752;DHT22;32497;48.936;9.270;2023-09-19T10:06:48;21.60;64.10
46752;DHT22;32497;48.936;9.270;2023-09-19T10:12:02;21.40;62.10
46752;DHT22;32497;48.936;9.270;2023-09-19T10:17:05;21.40;61.50
46752;DHT22;32497;48.936;9.270;2023-09-19T10:22:08;21.10;63.00
46752;DHT22;32497;48.936;9.270;2023-09-19T10:27:09;20.90;61.30
46752;DHT22;32497;48.936;9.270;2023-09-19T10:32:13;22.00;62.60
46752;DHT22;32497;48.936;9.270;2023-09-19T10:37:17;21.20;59.10
46752;DHT22;32497;48.936;9.270;2023-09-19T10:42:20;21.00;63.40
46752;DHT22;32497;48.936;9.270;2023-09-19T10:47:21;21.30;63.20
46752;DHT22;32497;48.936;9.270;2023-09-19T10:52:25;21.30;60.10
46752;DHT22;32497;48.936;9.270;2023-09-19T10:57:27;21.40;58.30
46752;DHT22;32497;48.936;9.270;2023-09-19T11:02:28;21.60;58.60
46752;DHT22;32497;48.936;9.270;2023-09-19T11:07:31;21.70;60.20
46752;DHT22;32497;48.936;9.270;2023-09-19T11:12:50;21.40;60.10
46752;DHT22;32497;48.936;9.270;2023-09-19T11:17:51;21.50;59.10
46752;DHT22;32497;48.936;9.270;2023-09-19T11:23:22;21.10;60.00
46752;DHT22;32497;48.936;9.270;2023-09-19T11:28:30;20.90;60.20
46752;DHT22;32497;48.936;9.270;2023-09-19T11:33:32;21.10;61.40
46752;DHT22;32497;48.936;9.270;2023-09-19T11:38:59;21.40;58.30
46752;DHT22;32497;48.936;9.270;2023-09-19T11:44:33;21.20;57.00
46752;DHT22;32497;48.936;9.270;2023-09-19T11:49:35;21.70;55.20
46752;DHT22;32497;48.936;9.270;2023-09-19T11:54:42;22.10;54.30
46752;DHT22;32497;48.936;9.270;2023-09-19T11:59:43;22.20;56.10
46752;DHT22;32497;48.936;9.270;2023-09-19T12:04:46;22.10;56.00
46752;DHT22;32497;48.936;9.270;2023-09-19T12:09:51;22.30;55.30
46752;DHT22;32497;48.936;9.270;2023-09-19T12:15:03;23.50;55.90
46752;DHT22;32497;48.936;9.270;2023-09-19T12:20:05;24.00;49.50
46752;DHT22;32497;48.936;9.270;2023-09-19T12:25:08;24.40;50.20
46752;DHT22;32497;48.936;9.270;2023-09-19T12:30:10;24.00;49.60
46752;DHT22;32497;48.936;9.270;2023-09-19T12:35:26;23.20;50.30
46752;DHT22;32497;48.936;9.270;2023-09-19T12:40:30;24.50;47.20
46752;DHT22;32497;48.936;9.270;2023-09-19T12:45:31;25.40;47.90
46752;DHT22;32497;48.936;9.270;2023-09-19T12:50:33;24.30;47.50
46752;DHT22;32497;48.936;9.270;2023-09-19T12:55:35;23.50;47.60
46752;DHT22;32497;48.936;9.270;2023-09-19T13:00:38;25.20;45.60
46752;DHT22;32497;48.936;9.270;2023-09-19T13:05:53;26.80;44.30
46752;DHT22;32497;48.936;9.270;2023-09-19T13:11:13;25.10;40.50
46752;DHT22;32497;48.936;9.270;2023-09-19T13:16:15;24.90;41.70
46752;DHT22;32497;48.936;9.270;2023-09-19T13:21:20;23.20;46.80
46752;DHT22;32497;48.936;9.270;2023-09-19T13:26:28;26.60;42.50
46752;DHT22;32497;48.936;9.270;2023-09-19T13:31:30;26.80;40.70
46752;DHT22;32497;48.936;9.270;2023-09-19T13:36:31;26.20;44.40
46752;DHT22;32497;48.936;9.270;2023-09-19T13:41:34;26.20;42.90
46752;DHT22;32497;48.936;9.270;2023-09-19T13:46:35;27.50;42.40
46752;DHT22;32497;48.936;9.270;2023-09-19T13:51:36;28.60;37.90
46752;DHT22;32497;48.936;9.270;2023-09-19T13:56:39;27.10;39.70
46752;DHT22;32497;48.936;9.270;2023-09-19T14:01:40;25.10;41.90
46752;DHT22;32497;48.936;9.270;2023-09-19T14:06:41;26.20;43.30
46752;DHT22;32497;48.936;9.270;2023-09-19T14:11:44;27.70;42.00
46752;DHT22;32497;48.936;9.270;2023-09-19T14:16:45;27.20;40.80
46752;DHT22;32497;48.936;9.270;2023-09-19T14:21:47;28.10;37.50
46752;DHT22;32497;48.936;9.270;2023-09-19T14:26:49;28.20;37.20
46752;DHT22;32497;48.936;9.270;2023-09-19T14:31:50;26.80;38.60
46752;DHT22;32497;48.936;9.270;2023-09-19T14:36:52;25.10;42.40
46752;DHT22;32497;48.936;9.270;2023-09-19T14:41:54;25.10;43.50
46752;DHT22;32497;48.936;9.270;2023-09-19T14:46:55;25.50;44.40
46752;DHT22;32497;48.936;9.270;2023-09-19T14:51:56;25.10;43.40
46752;DHT22;32497;48.936;9.270;2023-09-19T14:56:59;25.10;44.70
46752;DHT22;32497;48.936;9.270;2023-09-19T15:02:00;26.00;42.90
46752;DHT22;32497;48.936;9.270;2023-09-19T15:07:01;25.90;44.10
46752;DHT22;32497;48.936;9.270;2023-09-19T15:12:04;25.20;43.20
46752;DHT22;32497;48.936;9.270;2023-09-19T15:17:06;24.80;45.00
46752;DHT22;32497;48.936;9.270;2023-09-19T15:22:07;24.20;47.00
46752;DHT22;32497;48.936;9.270;2023-09-19T15:27:09;23.70;46.60
46752;DHT22;32497;48.936;9.270;2023-09-19T15:32:10;22.70;48.10
46752;DHT22;32497;48.936;9.270;2023-09-19T15:37:11;22.70;48.30
46752;DHT22;32497;48.936;9.270;2023-09-19T15:42:14;22.90;47.50
46752;DHT22;32497;48.936;9.270;2023-09-19T15:47:15;22.60;46.30
46752;DHT22;32497;48.936;9.270;2023-09-19T15:52:17;22.30;50.00
46752;DHT22;32497;48.936;9.270;2023-09-19T15:57:20;22.30;49.30
46752;DHT22;32497;48.936;9.270;2023-09-19T16:02:21;22.40;50.60
46752;DHT22;32497;48.936;9.270;2023-09-19T16:07:22;22.20;52.90
46752;DHT22;32497;48.936;9.270;2023-09-19T16:12:24;22.10;54.40
46752;DHT22;32497;48.936;9.270;2023-09-19T16:17:25;21.90;51.60
46752;DHT22;32497;48.936;9.270;2023-09-19T16:22:27;21.70;53.80
46752;DHT22;32497;48.936;9.270;2023-09-19T16:27:29;21.70;56.10
46752;DHT22;32497;48.936;9.270;2023-09-19T16:32:30;21.50;56.00
46752;DHT22;32497;48.936;9.270;2023-09-19T16:37:31;21.50;58.20
46752;DHT22;32497;48.936;9.270;2023-09-19T16:42:34;21.40;58.80
46752;DHT22;32497;48.936;9.270;2023-09-19T16:47:35;21.40;59.40
46752;DHT22;32497;48.936;9.270;2023-09-19T16:52:36;21.20;61.20
46752;DHT22;32497;48.936;9.270;2023-09-19T16:57:38;21.10;58.90
46752;DHT22;32497;48.936;9.270;2023-09-19T17:02:39;20.90;59.40
46752;DHT22;32497;48.936;9.270;2023-09-19T17:07:40;20.70;59.60
46752;DHT22;32497;48.936;9.270;2023-09-19T17:12:43;20.70;60.70
46752;DHT22;32497;48.936;9.270;2023-09-19T17:17:44;20.40;58.70
46752;DHT22;32497;48.936;9.270;2023-09-19T17:22:45;20.20;60.60
46752;DHT22;32497;48.936;9.270;2023-09-19T17:27:48;20.00;62.20
46752;DHT22;32497;48.936;9.270;2023-09-19T17:32:49;19.70;61.40
46752;DHT22;32497;48.936;9.270;2023-09-19T17:37:50;19.50;64.40
46752;DHT22;32497;48.936;9.270;2023-09-19T17:42:53;19.20;64.30
46752;DHT22;32497;48.936;9.270;2023-09-19T17:47:54;19.10;64.80
46752;DHT22;32497;48.936;9.270;2023-09-19T17:52:56;18.80;64.50
46752;DHT22;32497;48.936;9.270;2023-09-19T17:57:59;18.70;66.00
46752;DHT22;32497;48.936;9.270;2023-09-19T18:03:01;18.60;66.90
46752;DHT22;32497;48.936;9.270;2023-09-19T18:08:02;18.50;66.60
46752;DHT22;32497;48.936;9.270;2023-09-19T18:13:05;18.40;66.20
46752;DHT22;32497;48.936;9.270;2023-09-19T18:18:06;18.40;68.20
46752;DHT22;32497;48.936;9.270;2023-09-19T18:23:08;18.20;67.20
46752;DHT22;32497;48.936;9.270;2023-09-19T18:28:10;18.20;65.90
46752;DHT22;32497;48.936;9.270;2023-09-19T18:33:12;18.20;66.00
46752;DHT22;32497;48.936;9.270;2023-09-19T18:38:13;18.10;66.40
46752;DHT22;32497;48.936;9.270;2023-09-19T18:43:15;18.10;66.30
46752;DHT22;32497;48.936;9.270;2023-09-19T18:48:16;17.90;67.70
46752;DHT22;32497;48.936;9.270;2023-09-19T18:53:17;17.70;69.70
46752;DHT22;32497;48.936;9.270;2023-09-19T18:58:20;17.60;69.80
46752;DHT22;32497;48.936;9.270;2023-09-19T19:03:21;17.40;70.40
46752;DHT22;32497;48.936;9.270;2023-09-19T19:08:22;17.20;70.10
46752;DHT22;32497;48.936;9.270;2023-09-19T19:13:25;17.10;70.50
46752;DHT22;32497;48.936;9.270;2023-09-19T19:18:26;17.00;71.10
46752;DHT22;32497;48.936;9.270;2023-09-19T19:23:27;16.90;70.90
46752;DHT22;32497;48.936;9.270;2023-09-19T19:28:30;16.90;71.80
46752;DHT22;32497;48.936;9.270;2023-09-19T19:33:31;16.90;71.70
46752;DHT22;32497;48.936;9.270;2023-09-19T19:38:32;16.80;72.00
46752;DHT22;32497;48.936;9.270;2023-09-19T19:43:35;16.80;71.70
46752;DHT22;32497;48.936;9.270;2023-09-19T19:48:36;16.70;71.40
46752;DHT22;32497;48.936;9.270;2023-09-19T19:53:37;16.70;71.40
46752;DHT22;32497;48.936;9.270;2023-09-19T19:58:40;16.70;72.20
46752;DHT22;32497;48.936;9.270;2023-09-19T20:03:41;16.60;72.30
46752;DHT22;32497;48.936;9.270;2023-09-19T20:08:42;16.60;71.80
46752;DHT22;32497;48.936;9.270;2023-09-19T20:13:45;16.60;72.50
46752;DHT22;32497;48.936;9.270;2023-09-19T20:18:46;16.50;73.10
46752;DHT22;32497;48.936;9.270;2023-09-19T20:23:47;16.40;73.50
46752;DHT22;32497;48.936;9.270;2023-09-19T20:28:49;16.20;74.20
46752;DHT22;32497;48.936;9.270;2023-09-19T20:33:51;16.20;74.60
46752;DHT22;32497;48.936;9.270;2023-09-19T20:38:52;16.20;75.10
46752;DHT22;32497;48.936;9.270;2023-09-19T20:43:54;16.10;75.10
46752;DHT22;32497;48.936;9.270;2023-09-19T20:48:55;16.00;75.80
46752;DHT22;32497;48.936;9.270;2023-09-19T20:53:56;15.90;75.80
46752;DHT22;32497;48.936;9.270;2023-09-19T20:58:59;15.80;76.30
46752;DHT22;32497;48.936;9.270;2023-09-19T21:04:00;15.80;76.70
46752;DHT22;32497;48.936;9.270;2023-09-19T21:09:01;15.70;76.80
46752;DHT22;32497;48.936;9.270;2023-09-19T21:14:04;15.60;77.30
46752;DHT22;32497;48.936;9.270;2023-09-19T21:19:05;15.50;77.30
46752;DHT22;32497;48.936;9.270;2023-09-19T21:24:06;15.50;77.30
46752;DHT22;32497;48.936;9.270;2023-09-19T21:29:09;15.40;78.10
46752;DHT22;32497;48.936;9.270;2023-09-19T21:34:10;15.40;78.40
46752;DHT22;32497;48.936;9.270;2023-09-19T21:39:11;15.30;78.10
46752;DHT22;32497;48.936;9.270;2023-09-19T21:44:14;15.30;78.70
46752;DHT22;32497;48.936;9.270;2023-09-19T21:49:15;15.20;78.80
46752;DHT22;32497;48.936;9.270;2023-09-19T21:54:16;15.20;79.10
46752;DHT22;32497;48.936;9.270;2023-09-19T21:59:18;15.20;79.30
46752;DHT22;32497;48.936;9.270;2023-09-19T22:04:19;15.10;79.40
46752;DHT22;32497;48.936;9.270;2023-09-19T22:09:21;15.10;79.90
46752;DHT22;32497;48.936;9.270;2023-09-19T22:14:23;15.10;79.00
46752;DHT22;32497;48.936;9.270;2023-09-19T22:19:24;15.10;79.50
46752;DHT22;32497;48.936;9.270;2023-09-19T22:24:25;15.10;79.10
46752;DHT22;32497;48.936;9.270;2023-09-19T22:29:28;15.00;79.60
46752;DHT22;32497;48.936;9.270;2023-09-19T22:34:29;14.80;79.90
46752;DHT22;32497;48.936;9.270;2023-09-19T22:39:30;14.90;79.10
46752;DHT22;32497;48.936;9.270;2023-09-19T22:44:32;14.80;79.30
46752;DHT22;32497;48.936;9.270;2023-09-19T22:49:33;14.80;79.50
46752;DHT22;32497;48.936;9.270;2023-09-19T22:54:35;14.70;79.40
46752;DHT22;32497;48.936;9.270;2023-09-19T22:59:37;14.80;79.80
46752;DHT22;32497;48.936;9.270;2023-09-19T23:04:38;14.70;80.30
46752;DHT22;32497;48.936;9.270;2023-09-19T23:09:39;14.70;80.40
46752;DHT22;32497;48.936;9.270;2023-09-19T23:14:42;14.60;80.30
46752;DHT22;32497;48.936;9.270;2023-09-19T23:19:44;14.60;80.10
46752;DHT22;32497;48.936;9.270;2023-09-19T23:24:46;14.50;80.30
46752;DHT22;32497;48.936;9.270;2023-09-19T23:29:48;14.40;80.60
46752;DHT22;32497;48.936;9.270;2023-09-19T23:34:49;14.20;80.70
46752;DHT22;32497;48.936;9.270;2023-09-19T23:39:50;14.20;81.30
46752;DHT22;32497;48.936;9.270;2023-09-19T23:44:53;14.10;81.40
46752;DHT22;32497;48.936;9.270;2023-09-19T23:49:54;14.10;82.00
46752;DHT22;32497;48.936;9.270;2023-09-19T23:54:55;14.10;81.60
46752;DHT22;32497;48.936;9.270;2023-09-19T23:59:57;14.00;81.60
